sensor_id;sensor_type;location;lat;lon;timestamp;temperature;humidity
60909;DHT22;46780;48.128;-1.704;2023-08-01T00:00:01;18.50;99.90
60909;DHT22;46780;48.128;-1.704;2023-08-01T00:02:30;18.40;99.90
60909;DHT22;46780;48.128;-1.704;2023-08-01T00:04:56;18.40;99.90
60909;DHT22;46780;48.128;-1.704;2023-08-01T00:07:22;18.40;99.90
60909;DHT22;46780;48.128;-1.704;2023-08-01T00:09:49;18.40;99.90
60909;DHT22;46780;48.128;-1.704;2023-08-01T00:12:16;18.40;99.90
60909;DHT22;46780;48.128;-1.704;2023-08-01T00:14:42;18.40;99.90
60909;DHT22;46780;48.128;-1.704;2023-08-01T00:17:09;18.40;99.90
60909;DHT22;46780;48.128;-1.704;2023-08-01T00:19:36;18.40;99.90
60909;DHT22;46780;48.128;-1.704;2023-08-01T00:22:03;18.40;99.90
60909;DHT22;46780;48.128;-1.704;2023-08-01T00:24:30;18.40;99.90
60909;DHT22;46780;48.128;-1.704;2023-08-01T00:26:56;18.30;99.90
60909;DHT22;46780;48.128;-1.704;2023-08-01T00:29:23;18.30;99.90
60909;DHT22;46780;48.128;-1.704;2023-08-01T00:31:49;18.30;99.90
60909;DHT22;46780;48.128;-1.704;2023-08-01T00:34:16;18.30;99.90
60909;DHT22;46780;48.128;-1.704;2023-08-01T00:36:44;18.30;99.90
60909;DHT22;46780;48.128;-1.704;2023-08-01T00:39:10;18.30;99.90
60909;DHT22;46780;48.128;-1.704;2023-08-01T00:41:37;18.30;99.90
60909;DHT22;46780;48.128;-1.704;2023-08-01T00:44:03;18.20;99.90
60909;DHT22;46780;48.128;-1.704;2023-08-01T00:46:30;18.10;99.90
60909;DHT22;46780;48.128;-1.704;2023-08-01T00:48:56;18.10;99.90
60909;DHT22;46780;48.128;-1.704;2023-08-01T00:51:23;18.10;99.90
60909;DHT22;46780;48.128;-1.704;2023-08-01T00:53:51;18.00;99.90
60909;DHT22;46780;48.128;-1.704;2023-08-01T00:56:18;18.00;99.90
60909;DHT22;46780;48.128;-1.704;2023-08-01T00:58:45;18.00;99.90
60909;DHT22;46780;48.128;-1.704;2023-08-01T01:01:11;18.00;99.90
60909;DHT22;46780;48.128;-1.704;2023-08-01T01:03:39;17.90;99.90
60909;DHT22;46780;48.128;-1.704;2023-08-01T01:06:11;17.90;99.90
60909;DHT22;46780;48.128;-1.704;2023-08-01T01:08:39;17.80;99.90
60909;DHT22;46780;48.128;-1.704;2023-08-01T01:11:07;17.80;99.90
60909;DHT22;46780;48.128;-1.704;2023-08-01T01:13:34;17.80;99.90
60909;DHT22;46780;48.128;-1.704;2023-08-01T01:16:00;17.80;99.90
60909;DHT22;46780;48.128;-1.704;2023-08-01T01:18:27;17.80;99.90
60909;DHT22;46780;48.128;-1.704;2023-08-01T01:20:55;17.80;99.90
60909;DHT22;46780;48.128;-1.704;2023-08-01T01:23:22;17.80;99.90
60909;DHT22;46780;48.128;-1.704;2023-08-01T01:25:49;17.70;99.90
60909;DHT22;46780;48.128;-1.704;2023-08-01T01:28:17;17.70;99.90
60909;DHT22;46780;48.128;-1.704;2023-08-01T01:30:45;17.70;99.90
60909;DHT22;46780;48.128;-1.704;2023-08-01T01:33:12;17.60;99.90
60909;DHT22;46780;48.128;-1.704;2023-08-01T01:35:39;17.60;99.90
60909;DHT22;46780;48.128;-1.704;2023-08-01T01:38:08;17.60;99.90
60909;DHT22;46780;48.128;-1.704;2023-08-01T01:40:35;17.50;99.90
60909;DHT22;46780;48.128;-1.704;2023-08-01T01:43:02;17.50;99.90
60909;DHT22;46780;48.128;-1.704;2023-08-01T01:45:28;17.50;99.90
60909;DHT22;46780;48.128;-1.704;2023-08-01T01:47:55;17.50;99.90
60909;DHT22;46780;48.128;-1.704;2023-08-01T01:50:21;17.50;99.90
60909;DHT22;46780;48.128;-1.704;2023-08-01T01:52:48;17.40;99.90
60909;DHT22;46780;48.128;-1.704;2023-08-01T01:55:16;17.40;99.90
60909;DHT22;46780;48.128;-1.704;2023-08-01T01:57:42;17.40;99.90
60909;DHT22;46780;48.128;-1.704;2023-08-01T02:00:10;17.40;99.90
60909;DHT22;46780;48.128;-1.704;2023-08-01T02:02:37;17.40;99.90
60909;DHT22;46780;48.128;-1.704;2023-08-01T02:05:03;17.40;99.90
60909;DHT22;46780;48.128;-1.704;2023-08-01T02:07:30;17.40;99.90
60909;DHT22;46780;48.128;-1.704;2023-08-01T02:09:57;17.40;99.90
60909;DHT22;46780;48.128;-1.704;2023-08-01T02:12:24;17.50;99.90
60909;DHT22;46780;48.128;-1.704;2023-08-01T02:14:51;17.50;99.90
60909;DHT22;46780;48.128;-1.704;2023-08-01T02:17:17;17.40;99.90
60909;DHT22;46780;48.128;-1.704;2023-08-01T02:19:44;17.40;99.90
60909;DHT22;46780;48.128;-1.704;2023-08-01T02:22:11;17.40;99.90
60909;DHT22;46780;48.128;-1.704;2023-08-01T02:24:37;17.30;99.90
60909;DHT22;46780;48.128;-1.704;2023-08-01T02:27:04;17.30;99.90
60909;DHT22;46780;48.128;-1.704;2023-08-01T02:29:32;17.20;99.90
60909;DHT22;46780;48.128;-1.704;2023-08-01T02:31:58;17.20;99.90
60909;DHT22;46780;48.128;-1.704;2023-08-01T02:34:25;17.10;99.90
60909;DHT22;46780;48.128;-1.704;2023-08-01T02:36:51;17.10;99.90
60909;DHT22;46780;48.128;-1.704;2023-08-01T02:39:18;17.00;99.90
60909;DHT22;46780;48.128;-1.704;2023-08-01T02:41:45;17.00;99.90
60909;DHT22;46780;48.128;-1.704;2023-08-01T02:44:11;17.00;99.90
60909;DHT22;46780;48.128;-1.704;2023-08-01T02:46:39;17.00;99.90
60909;DHT22;46780;48.128;-1.704;2023-08-01T02:49:05;16.90;99.90
60909;DHT22;46780;48.128;-1.704;2023-08-01T02:51:32;16.90;99.90
60909;DHT22;46780;48.128;-1.704;2023-08-01T02:53:58;16.80;99.90
60909;DHT22;46780;48.128;-1.704;2023-08-01T02:56:25;16.80;99.90
60909;DHT22;46780;48.128;-1.704;2023-08-01T02:58:51;16.80;99.90
60909;DHT22;46780;48.128;-1.704;2023-08-01T03:01:18;16.80;99.90
60909;DHT22;46780;48.128;-1.704;2023-08-01T03:03:46;16.80;99.90
60909;DHT22;46780;48.128;-1.704;2023-08-01T03:06:12;16.70;99.90
60909;DHT22;46780;48.128;-1.704;2023-08-01T03:08:39;16.70;99.90
60909;DHT22;46780;48.128;-1.704;2023-08-01T03:11:05;16.60;99.90
60909;DHT22;46780;48.128;-1.704;2023-08-01T03:13:32;16.60;99.90
60909;DHT22;46780;48.128;-1.704;2023-08-01T03:15:58;16.50;99.90
60909;DHT22;46780;48.128;-1.704;2023-08-01T03:18:25;16.50;99.90
60909;DHT22;46780;48.128;-1.704;2023-08-01T03:20:52;16.50;99.90
60909;DHT22;46780;48.128;-1.704;2023-08-01T03:23:19;16.50;99.90
60909;DHT22;46780;48.128;-1.704;2023-08-01T03:25:45;16.40;99.90
60909;DHT22;46780;48.128;-1.704;2023-08-01T03:28:12;16.40;99.90
60909;DHT22;46780;48.128;-1.704;2023-08-01T03:30:38;16.30;99.90
60909;DHT22;46780;48.128;-1.704;2023-08-01T03:33:05;16.30;99.90
60909;DHT22;46780;48.128;-1.704;2023-08-01T03:35:31;16.30;99.90
60909;DHT22;46780;48.128;-1.704;2023-08-01T03:37:59;16.20;99.90
60909;DHT22;46780;48.128;-1.704;2023-08-01T03:40:26;16.10;99.90
60909;DHT22;46780;48.128;-1.704;2023-08-01T03:42:52;16.10;99.90
60909;DHT22;46780;48.128;-1.704;2023-08-01T03:45:19;16.10;99.90
60909;DHT22;46780;48.128;-1.704;2023-08-01T03:47:45;16.10;99.90
60909;DHT22;46780;48.128;-1.704;2023-08-01T03:50:12;16.00;99.90
60909;DHT22;46780;48.128;-1.704;2023-08-01T03:52:38;16.00;99.90
60909;DHT22;46780;48.128;-1.704;2023-08-01T03:55:07;15.90;99.90
60909;DHT22;46780;48.128;-1.704;2023-08-01T03:57:33;15.90;99.90
60909;DHT22;46780;48.128;-1.704;2023-08-01T04:00:00;15.90;99.90
60909;DHT22;46780;48.128;-1.704;2023-08-01T04:02:26;15.80;99.90
60909;DHT22;46780;48.128;-1.704;2023-08-01T04:04:53;15.90;99.90
60909;DHT22;46780;48.128;-1.704;2023-08-01T04:07:19;15.90;99.90
60909;DHT22;46780;48.128;-1.704;2023-08-01T04:09:46;15.90;99.90
60909;DHT22;46780;48.128;-1.704;2023-08-01T04:12:14;15.80;99.90
60909;DHT22;46780;48.128;-1.704;2023-08-01T04:14:40;15.80;99.90
60909;DHT22;46780;48.128;-1.704;2023-08-01T04:17:07;15.80;99.90
60909;DHT22;46780;48.128;-1.704;2023-08-01T04:19:33;15.90;99.90
60909;DHT22;46780;48.128;-1.704;2023-08-01T04:22:00;15.90;99.90
60909;DHT22;46780;48.128;-1.704;2023-08-01T04:24:26;15.90;99.90
60909;DHT22;46780;48.128;-1.704;2023-08-01T04:26:52;15.90;99.90
60909;DHT22;46780;48.128;-1.704;2023-08-01T04:29:20;15.90;99.90
60909;DHT22;46780;48.128;-1.704;2023-08-01T04:31:47;15.90;99.90
60909;DHT22;46780;48.128;-1.704;2023-08-01T04:34:13;16.00;99.90
60909;DHT22;46780;48.128;-1.704;2023-08-01T04:36:40;16.00;99.90
60909;DHT22;46780;48.128;-1.704;2023-08-01T04:39:06;15.90;99.90
60909;DHT22;46780;48.128;-1.704;2023-08-01T04:41:33;15.90;99.90
60909;DHT22;46780;48.128;-1.704;2023-08-01T04:43:59;15.90;99.90
60909;DHT22;46780;48.128;-1.704;2023-08-01T04:46:27;15.90;99.90
60909;DHT22;46780;48.128;-1.704;2023-08-01T04:48:54;16.00;99.90
60909;DHT22;46780;48.128;-1.704;2023-08-01T04:51:20;16.10;99.90
60909;DHT22;46780;48.128;-1.704;2023-08-01T04:53:47;16.10;99.90
60909;DHT22;46780;48.128;-1.704;2023-08-01T04:56:13;16.20;99.90
60909;DHT22;46780;48.128;-1.704;2023-08-01T04:58:40;16.20;99.90
60909;DHT22;46780;48.128;-1.704;2023-08-01T05:01:06;16.20;99.90
60909;DHT22;46780;48.128;-1.704;2023-08-01T05:03:34;16.20;99.90
60909;DHT22;46780;48.128;-1.704;2023-08-01T05:06:00;16.20;99.90
60909;DHT22;46780;48.128;-1.704;2023-08-01T05:08:27;16.10;99.90
60909;DHT22;46780;48.128;-1.704;2023-08-01T05:10:54;16.10;99.90
60909;DHT22;46780;48.128;-1.704;2023-08-01T05:13:20;16.00;99.90
60909;DHT22;46780;48.128;-1.704;2023-08-01T05:15:47;16.00;99.90
60909;DHT22;46780;48.128;-1.704;2023-08-01T05:18:13;15.90;99.90
60909;DHT22;46780;48.128;-1.704;2023-08-01T05:20:41;16.00;99.90
60909;DHT22;46780;48.128;-1.704;2023-08-01T05:23:08;16.00;99.90
60909;DHT22;46780;48.128;-1.704;2023-08-01T05:25:34;16.10;99.90
60909;DHT22;46780;48.128;-1.704;2023-08-01T05:28:01;16.10;99.90
60909;DHT22;46780;48.128;-1.704;2023-08-01T05:30:27;16.10;99.90
60909;DHT22;46780;48.128;-1.704;2023-08-01T05:32:54;16.20;99.90
60909;DHT22;46780;48.128;-1.704;2023-08-01T05:35:20;16.20;99.90
60909;DHT22;46780;48.128;-1.704;2023-08-01T05:37:48;16.20;99.90
60909;DHT22;46780;48.128;-1.704;2023-08-01T05:40:15;16.20;99.90
60909;DHT22;46780;48.128;-1.704;2023-08-01T05:42:41;16.30;99.90
60909;DHT22;46780;48.128;-1.704;2023-08-01T05:45:09;16.30;99.90
60909;DHT22;46780;48.128;-1.704;2023-08-01T05:47:35;16.30;99.90
60909;DHT22;46780;48.128;-1.704;2023-08-01T05:50:02;16.40;99.90
60909;DHT22;46780;48.128;-1.704;2023-08-01T05:52:29;16.40;99.90
60909;DHT22;46780;48.128;-1.704;2023-08-01T05:54:57;16.50;99.90
60909;DHT22;46780;48.128;-1.704;2023-08-01T05:57:24;16.50;99.90
60909;DHT22;46780;48.128;-1.704;2023-08-01T05:59:50;16.60;99.90
60909;DHT22;46780;48.128;-1.704;2023-08-01T06:02:17;16.60;99.90
60909;DHT22;46780;48.128;-1.704;2023-08-01T06:04:43;16.60;99.90
60909;DHT22;46780;48.128;-1.704;2023-08-01T06:07:10;16.70;99.90
60909;DHT22;46780;48.128;-1.704;2023-08-01T06:09:36;16.70;99.90
60909;DHT22;46780;48.128;-1.704;2023-08-01T06:12:05;16.70;99.90
60909;DHT22;46780;48.128;-1.704;2023-08-01T06:14:32;16.70;99.90
60909;DHT22;46780;48.128;-1.704;2023-08-01T06:16:59;16.70;99.90
60909;DHT22;46780;48.128;-1.704;2023-08-01T06:19:25;16.70;99.90
60909;DHT22;46780;48.128;-1.704;2023-08-01T06:21:51;16.70;99.90
60909;DHT22;46780;48.128;-1.704;2023-08-01T06:24:18;16.80;99.90
60909;DHT22;46780;48.128;-1.704;2023-08-01T06:26:44;16.80;99.90
60909;DHT22;46780;48.128;-1.704;2023-08-01T06:29:12;16.90;99.90
60909;DHT22;46780;48.128;-1.704;2023-08-01T06:31:40;16.90;99.90
60909;DHT22;46780;48.128;-1.704;2023-08-01T06:34:06;16.90;99.90
60909;DHT22;46780;48.128;-1.704;2023-08-01T06:36:33;16.90;99.90
60909;DHT22;46780;48.128;-1.704;2023-08-01T06:38:59;16.90;99.90
60909;DHT22;46780;48.128;-1.704;2023-08-01T06:41:26;17.00;99.90
60909;DHT22;46780;48.128;-1.704;2023-08-01T06:43:52;17.00;99.90
60909;DHT22;46780;48.128;-1.704;2023-08-01T06:46:20;17.00;99.90
60909;DHT22;46780;48.128;-1.704;2023-08-01T06:48:46;17.00;99.90
60909;DHT22;46780;48.128;-1.704;2023-08-01T06:51:13;17.10;99.90
60909;DHT22;46780;48.128;-1.704;2023-08-01T06:53:39;17.10;99.90
60909;DHT22;46780;48.128;-1.704;2023-08-01T06:56:06;17.20;99.90
60909;DHT22;46780;48.128;-1.704;2023-08-01T06:58:33;17.30;99.90
60909;DHT22;46780;48.128;-1.704;2023-08-01T07:01:00;17.50;99.90
60909;DHT22;46780;48.128;-1.704;2023-08-01T07:03:27;17.40;99.90
60909;DHT22;46780;48.128;-1.704;2023-08-01T07:05:54;17.40;99.90
60909;DHT22;46780;48.128;-1.704;2023-08-01T07:08:20;17.30;99.90
60909;DHT22;46780;48.128;-1.704;2023-08-01T07:10:47;17.20;99.90
60909;DHT22;46780;48.128;-1.704;2023-08-01T07:13:14;17.20;99.90
60909;DHT22;46780;48.128;-1.704;2023-08-01T07:15:40;17.20;99.90
60909;DHT22;46780;48.128;-1.704;2023-08-01T07:18:07;17.40;99.90
60909;DHT22;46780;48.128;-1.704;2023-08-01T07:20:35;17.60;99.90
60909;DHT22;46780;48.128;-1.704;2023-08-01T07:23:01;17.70;99.90
60909;DHT22;46780;48.128;-1.704;2023-08-01T07:25:28;17.80;99.90
60909;DHT22;46780;48.128;-1.704;2023-08-01T07:27:54;17.90;99.90
60909;DHT22;46780;48.128;-1.704;2023-08-01T07:30:21;18.00;99.90
60909;DHT22;46780;48.128;-1.704;2023-08-01T07:32:47;18.10;99.90
60909;DHT22;46780;48.128;-1.704;2023-08-01T07:35:14;18.20;99.90
60909;DHT22;46780;48.128;-1.704;2023-08-01T07:37:41;18.30;99.90
60909;DHT22;46780;48.128;-1.704;2023-08-01T07:40:09;18.30;99.90
60909;DHT22;46780;48.128;-1.704;2023-08-01T07:42:36;18.40;99.90
60909;DHT22;46780;48.128;-1.704;2023-08-01T07:45:03;18.70;99.90
60909;DHT22;46780;48.128;-1.704;2023-08-01T07:47:29;18.80;99.90
60909;DHT22;46780;48.128;-1.704;2023-08-01T07:49:56;18.90;99.90
60909;DHT22;46780;48.128;-1.704;2023-08-01T07:52:22;18.90;99.90
60909;DHT22;46780;48.128;-1.704;2023-08-01T07:54:50;19.00;99.90
60909;DHT22;46780;48.128;-1.704;2023-08-01T07:57:17;18.80;99.90
60909;DHT22;46780;48.128;-1.704;2023-08-01T07:59:43;18.90;99.90
60909;DHT22;46780;48.128;-1.704;2023-08-01T08:02:10;19.00;99.90
60909;DHT22;46780;48.128;-1.704;2023-08-01T08:04:36;19.20;99.90
60909;DHT22;46780;48.128;-1.704;2023-08-01T08:07:04;19.30;99.90
60909;DHT22;46780;48.128;-1.704;2023-08-01T08:09:30;19.50;99.90
60909;DHT22;46780;48.128;-1.704;2023-08-01T08:11:58;19.70;99.90
60909;DHT22;46780;48.128;-1.704;2023-08-01T08:14:25;19.70;99.90
60909;DHT22;46780;48.128;-1.704;2023-08-01T08:16:51;19.60;99.90
60909;DHT22;46780;48.128;-1.704;2023-08-01T08:19:18;19.40;99.90
60909;DHT22;46780;48.128;-1.704;2023-08-01T08:21:44;19.30;99.90
60909;DHT22;46780;48.128;-1.704;2023-08-01T08:24:11;19.30;99.90
60909;DHT22;46780;48.128;-1.704;2023-08-01T08:26:37;19.30;99.90
60909;DHT22;46780;48.128;-1.704;2023-08-01T08:29:05;19.40;99.90
60909;DHT22;46780;48.128;-1.704;2023-08-01T08:31:32;19.70;99.90
60909;DHT22;46780;48.128;-1.704;2023-08-01T08:33:59;19.90;99.90
60909;DHT22;46780;48.128;-1.704;2023-08-01T08:36:25;20.10;99.90
60909;DHT22;46780;48.128;-1.704;2023-08-01T08:38:52;20.30;99.90
60909;DHT22;46780;48.128;-1.704;2023-08-01T08:41:21;20.50;99.90
60909;DHT22;46780;48.128;-1.704;2023-08-01T08:43:48;20.70;99.90
60909;DHT22;46780;48.128;-1.704;2023-08-01T08:46:16;20.70;99.90
60909;DHT22;46780;48.128;-1.704;2023-08-01T08:48:43;20.60;99.90
60909;DHT22;46780;48.128;-1.704;2023-08-01T08:51:10;20.40;99.90
60909;DHT22;46780;48.128;-1.704;2023-08-01T08:53:38;20.30;99.90
60909;DHT22;46780;48.128;-1.704;2023-08-01T08:56:08;20.20;99.90
60909;DHT22;46780;48.128;-1.704;2023-08-01T08:58:36;20.30;99.90
60909;DHT22;46780;48.128;-1.704;2023-08-01T09:01:04;20.30;99.90
60909;DHT22;46780;48.128;-1.704;2023-08-01T09:03:33;20.20;99.90
60909;DHT22;46780;48.128;-1.704;2023-08-01T09:06:04;20.00;99.90
60909;DHT22;46780;48.128;-1.704;2023-08-01T09:08:35;20.00;99.90
60909;DHT22;46780;48.128;-1.704;2023-08-01T09:11:03;20.10;99.90
60909;DHT22;46780;48.128;-1.704;2023-08-01T09:13:29;20.00;99.90
60909;DHT22;46780;48.128;-1.704;2023-08-01T09:15:56;19.90;99.90
60909;DHT22;46780;48.128;-1.704;2023-08-01T09:18:23;19.80;99.90
60909;DHT22;46780;48.128;-1.704;2023-08-01T09:20:51;19.60;99.90
60909;DHT22;46780;48.128;-1.704;2023-08-01T09:23:18;19.50;99.90
60909;DHT22;46780;48.128;-1.704;2023-08-01T09:25:44;19.30;99.90
60909;DHT22;46780;48.128;-1.704;2023-08-01T09:28:18;19.30;99.90
60909;DHT22;46780;48.128;-1.704;2023-08-01T09:30:48;19.50;99.90
60909;DHT22;46780;48.128;-1.704;2023-08-01T09:33:15;19.60;99.90
60909;DHT22;46780;48.128;-1.704;2023-08-01T09:35:41;19.60;99.90
60909;DHT22;46780;48.128;-1.704;2023-08-01T09:38:10;19.40;99.90
60909;DHT22;46780;48.128;-1.704;2023-08-01T09:40:37;19.30;99.90
60909;DHT22;46780;48.128;-1.704;2023-08-01T09:43:03;19.20;99.90
60909;DHT22;46780;48.128;-1.704;2023-08-01T09:45:30;19.10;99.90
60909;DHT22;46780;48.128;-1.704;2023-08-01T09:47:56;19.00;99.90
60909;DHT22;46780;48.128;-1.704;2023-08-01T09:50:23;19.30;99.90
60909;DHT22;46780;48.128;-1.704;2023-08-01T09:52:50;19.70;99.90
60909;DHT22;46780;48.128;-1.704;2023-08-01T09:55:19;20.30;99.90
60909;DHT22;46780;48.128;-1.704;2023-08-01T09:57:49;21.20;99.90
60909;DHT22;46780;48.128;-1.704;2023-08-01T10:00:16;22.00;99.90
60909;DHT22;46780;48.128;-1.704;2023-08-01T10:02:43;22.60;98.30
60909;DHT22;46780;48.128;-1.704;2023-08-01T10:05:10;23.10;96.80
60909;DHT22;46780;48.128;-1.704;2023-08-01T10:07:38;23.60;94.80
60909;DHT22;46780;48.128;-1.704;2023-08-01T10:10:08;23.70;93.80
60909;DHT22;46780;48.128;-1.704;2023-08-01T10:12:36;23.30;91.90
60909;DHT22;46780;48.128;-1.704;2023-08-01T10:15:05;22.80;94.00
60909;DHT22;46780;48.128;-1.704;2023-08-01T10:17:34;22.50;94.30
60909;DHT22;46780;48.128;-1.704;2023-08-01T10:20:02;22.50;94.60
60909;DHT22;46780;48.128;-1.704;2023-08-01T10:22:30;22.50;94.80
60909;DHT22;46780;48.128;-1.704;2023-08-01T10:24:57;22.50;95.70
60909;DHT22;46780;48.128;-1.704;2023-08-01T10:27:24;22.80;94.60
60909;DHT22;46780;48.128;-1.704;2023-08-01T10:29:59;23.00;94.50
60909;DHT22;46780;48.128;-1.704;2023-08-01T10:32:31;23.10;92.70
60909;DHT22;46780;48.128;-1.704;2023-08-01T10:34:58;23.30;92.70
60909;DHT22;46780;48.128;-1.704;2023-08-01T10:37:24;23.30;92.80
60909;DHT22;46780;48.128;-1.704;2023-08-01T10:39:56;23.30;92.60
60909;DHT22;46780;48.128;-1.704;2023-08-01T10:42:23;23.40;92.90
60909;DHT22;46780;48.128;-1.704;2023-08-01T10:44:50;23.30;92.30
60909;DHT22;46780;48.128;-1.704;2023-08-01T10:47:27;22.90;93.30
60909;DHT22;46780;48.128;-1.704;2023-08-01T10:49:53;22.50;95.10
60909;DHT22;46780;48.128;-1.704;2023-08-01T10:52:21;22.20;96.90
60909;DHT22;46780;48.128;-1.704;2023-08-01T10:54:56;21.80;97.80
60909;DHT22;46780;48.128;-1.704;2023-08-01T10:57:23;21.60;98.70
60909;DHT22;46780;48.128;-1.704;2023-08-01T10:59:50;21.50;99.60
60909;DHT22;46780;48.128;-1.704;2023-08-01T11:02:20;21.40;99.90
60909;DHT22;46780;48.128;-1.704;2023-08-01T11:04:56;21.20;99.90
60909;DHT22;46780;48.128;-1.704;2023-08-01T11:07:23;20.90;99.90
60909;DHT22;46780;48.128;-1.704;2023-08-01T11:09:50;20.60;99.90
60909;DHT22;46780;48.128;-1.704;2023-08-01T11:12:27;20.50;99.90
60909;DHT22;46780;48.128;-1.704;2023-08-01T11:14:59;20.60;99.90
60909;DHT22;46780;48.128;-1.704;2023-08-01T11:17:26;20.70;99.90
60909;DHT22;46780;48.128;-1.704;2023-08-01T11:20:02;20.70;99.90
60909;DHT22;46780;48.128;-1.704;2023-08-01T11:22:28;20.90;99.90
60909;DHT22;46780;48.128;-1.704;2023-08-01T11:24:55;21.10;99.90
60909;DHT22;46780;48.128;-1.704;2023-08-01T11:27:21;21.20;99.90
60909;DHT22;46780;48.128;-1.704;2023-08-01T11:29:48;21.20;99.90
60909;DHT22;46780;48.128;-1.704;2023-08-01T11:32:14;21.20;99.90
60909;DHT22;46780;48.128;-1.704;2023-08-01T11:34:41;21.10;99.90
60909;DHT22;46780;48.128;-1.704;2023-08-01T11:37:10;21.00;99.90
60909;DHT22;46780;48.128;-1.704;2023-08-01T11:39:36;20.90;99.90
60909;DHT22;46780;48.128;-1.704;2023-08-01T11:42:03;21.00;99.90
60909;DHT22;46780;48.128;-1.704;2023-08-01T11:44:30;21.10;99.90
60909;DHT22;46780;48.128;-1.704;2023-08-01T11:46:57;21.00;99.90
60909;DHT22;46780;48.128;-1.704;2023-08-01T11:49:23;21.00;99.90
60909;DHT22;46780;48.128;-1.704;2023-08-01T11:51:50;21.00;99.90
60909;DHT22;46780;48.128;-1.704;2023-08-01T11:54:18;21.00;99.90
60909;DHT22;46780;48.128;-1.704;2023-08-01T11:56:44;21.10;99.90
60909;DHT22;46780;48.128;-1.704;2023-08-01T11:59:12;21.10;99.90
60909;DHT22;46780;48.128;-1.704;2023-08-01T12:01:39;21.10;99.90
60909;DHT22;46780;48.128;-1.704;2023-08-01T12:04:06;21.10;99.90
60909;DHT22;46780;48.128;-1.704;2023-08-01T12:06:33;21.10;99.90
60909;DHT22;46780;48.128;-1.704;2023-08-01T12:09:07;21.10;99.90
60909;DHT22;46780;48.128;-1.704;2023-08-01T12:11:35;21.00;99.90
60909;DHT22;46780;48.128;-1.704;2023-08-01T12:14:02;20.80;99.90
60909;DHT22;46780;48.128;-1.704;2023-08-01T12:16:30;20.80;99.90
60909;DHT22;46780;48.128;-1.704;2023-08-01T12:18:57;20.90;99.90
60909;DHT22;46780;48.128;-1.704;2023-08-01T12:21:23;20.90;99.90
60909;DHT22;46780;48.128;-1.704;2023-08-01T12:23:50;20.80;99.90
60909;DHT22;46780;48.128;-1.704;2023-08-01T12:26:16;20.50;99.90
60909;DHT22;46780;48.128;-1.704;2023-08-01T12:28:44;20.40;99.90
60909;DHT22;46780;48.128;-1.704;2023-08-01T12:31:11;20.30;99.90
60909;DHT22;46780;48.128;-1.704;2023-08-01T12:33:41;20.20;99.90
60909;DHT22;46780;48.128;-1.704;2023-08-01T12:36:08;20.10;99.90
60909;DHT22;46780;48.128;-1.704;2023-08-01T12:38:34;20.10;99.90
60909;DHT22;46780;48.128;-1.704;2023-08-01T12:41:01;20.00;99.90
60909;DHT22;46780;48.128;-1.704;2023-08-01T12:43:27;20.00;99.90
60909;DHT22;46780;48.128;-1.704;2023-08-01T12:45:55;20.00;99.90
60909;DHT22;46780;48.128;-1.704;2023-08-01T12:48:22;20.00;99.90
60909;DHT22;46780;48.128;-1.704;2023-08-01T12:50:49;19.90;99.90
60909;DHT22;46780;48.128;-1.704;2023-08-01T12:53:15;19.90;99.90
60909;DHT22;46780;48.128;-1.704;2023-08-01T12:55:43;19.80;99.90
60909;DHT22;46780;48.128;-1.704;2023-08-01T12:58:09;19.80;99.90
60909;DHT22;46780;48.128;-1.704;2023-08-01T13:00:36;19.70;99.90
60909;DHT22;46780;48.128;-1.704;2023-08-01T13:03:04;19.70;99.90
60909;DHT22;46780;48.128;-1.704;2023-08-01T13:05:30;19.70;99.90
60909;DHT22;46780;48.128;-1.704;2023-08-01T13:07:57;19.70;99.90
60909;DHT22;46780;48.128;-1.704;2023-08-01T13:10:23;19.80;99.90
60909;DHT22;46780;48.128;-1.704;2023-08-01T13:12:51;19.80;99.90
60909;DHT22;46780;48.128;-1.704;2023-08-01T13:15:17;20.00;99.90
60909;DHT22;46780;48.128;-1.704;2023-08-01T13:17:44;20.10;99.90
60909;DHT22;46780;48.128;-1.704;2023-08-01T13:20:12;20.20;99.90
60909;DHT22;46780;48.128;-1.704;2023-08-01T13:22:39;20.30;99.90
60909;DHT22;46780;48.128;-1.704;2023-08-01T13:25:06;20.40;99.90
60909;DHT22;46780;48.128;-1.704;2023-08-01T13:27:34;20.30;99.90
60909;DHT22;46780;48.128;-1.704;2023-08-01T13:30:01;20.30;99.90
60909;DHT22;46780;48.128;-1.704;2023-08-01T13:32:28;20.10;99.90
60909;DHT22;46780;48.128;-1.704;2023-08-01T13:34:54;20.00;99.90
60909;DHT22;46780;48.128;-1.704;2023-08-01T13:37:22;20.00;99.90
60909;DHT22;46780;48.128;-1.704;2023-08-01T13:39:49;20.00;99.90
60909;DHT22;46780;48.128;-1.704;2023-08-01T13:42:15;19.90;99.90
60909;DHT22;46780;48.128;-1.704;2023-08-01T13:44:42;19.90;99.90
60909;DHT22;46780;48.128;-1.704;2023-08-01T13:47:09;19.80;99.90
60909;DHT22;46780;48.128;-1.704;2023-08-01T13:49:35;19.80;99.90
60909;DHT22;46780;48.128;-1.704;2023-08-01T13:52:03;19.80;99.90
60909;DHT22;46780;48.128;-1.704;2023-08-01T13:54:31;19.80;99.90
60909;DHT22;46780;48.128;-1.704;2023-08-01T13:56:57;19.80;99.90
60909;DHT22;46780;48.128;-1.704;2023-08-01T13:59:24;19.90;99.90
60909;DHT22;46780;48.128;-1.704;2023-08-01T14:01:50;19.90;99.90
60909;DHT22;46780;48.128;-1.704;2023-08-01T14:04:17;19.90;99.90
60909;DHT22;46780;48.128;-1.704;2023-08-01T14:06:43;19.80;99.90
60909;DHT22;46780;48.128;-1.704;2023-08-01T14:09:10;19.80;99.90
60909;DHT22;46780;48.128;-1.704;2023-08-01T14:11:40;19.80;99.90
60909;DHT22;46780;48.128;-1.704;2023-08-01T14:14:06;19.70;99.90
60909;DHT22;46780;48.128;-1.704;2023-08-01T14:16:33;19.70;99.90
60909;DHT22;46780;48.128;-1.704;2023-08-01T14:19:00;19.60;99.90
60909;DHT22;46780;48.128;-1.704;2023-08-01T14:21:26;19.60;99.90
60909;DHT22;46780;48.128;-1.704;2023-08-01T14:23:53;19.60;99.90
60909;DHT22;46780;48.128;-1.704;2023-08-01T14:26:19;19.60;99.90
60909;DHT22;46780;48.128;-1.704;2023-08-01T14:28:47;19.60;99.90
60909;DHT22;46780;48.128;-1.704;2023-08-01T14:31:14;19.60;99.90
60909;DHT22;46780;48.128;-1.704;2023-08-01T14:33:40;19.60;99.90
60909;DHT22;46780;48.128;-1.704;2023-08-01T14:36:08;19.50;99.90
60909;DHT22;46780;48.128;-1.704;2023-08-01T14:38:35;19.40;99.90
60909;DHT22;46780;48.128;-1.704;2023-08-01T14:41:02;19.30;99.90
60909;DHT22;46780;48.128;-1.704;2023-08-01T14:43:28;19.20;99.90
60909;DHT22;46780;48.128;-1.704;2023-08-01T14:45:56;19.20;99.90
60909;DHT22;46780;48.128;-1.704;2023-08-01T14:48:23;19.20;99.90
60909;DHT22;46780;48.128;-1.704;2023-08-01T14:50:49;19.20;99.90
60909;DHT22;46780;48.128;-1.704;2023-08-01T14:53:16;19.20;99.90
60909;DHT22;46780;48.128;-1.704;2023-08-01T14:55:42;19.20;99.90
60909;DHT22;46780;48.128;-1.704;2023-08-01T14:58:09;19.20;99.90
60909;DHT22;46780;48.128;-1.704;2023-08-01T15:00:36;19.20;99.90
60909;DHT22;46780;48.128;-1.704;2023-08-01T15:03:04;19.20;99.90
60909;DHT22;46780;48.128;-1.704;2023-08-01T15:05:31;19.20;99.90
60909;DHT22;46780;48.128;-1.704;2023-08-01T15:07:57;19.20;99.90
60909;DHT22;46780;48.128;-1.704;2023-08-01T15:10:24;19.30;99.90
60909;DHT22;46780;48.128;-1.704;2023-08-01T15:12:50;19.40;99.90